Valle Di Andalusia — IBTJ — position and weather

sailwx.info

Track history (hours):
 
Tides and Currents Weather Stations Pressure Air Temp Water Temp Dewpoint Dewpoint Depression Visibility Wind Speed Wind Dir Waves Ship Positions

Valle Di Andalusia

Last reported at 2016-May-23 14:10 UTC. Time now 2016-May-24 23:30 UTC.
Position N 44°58' E 012°50'.

Length 176 m; draft 7.5 m.

Type: Tanker. MMSI: 247046200.

Date/timePositionNaut miles runAvg speedWind from/ knotsBaromVisibWave heightAir tempDewpointWater temp
2016-May-23 14:10N 44°58' E 012°50'914.0
2016-May-23 13:33N 45°04' E 012°42'1413.7
2016-May-23 12:33N 45°14' E 012°30'1211.9
2016-May-23 11:33N 45°21' E 012°16'6 5.6
2016-May-23 10:33N 45°26' E 012°14'  
2016-May-19 00:12N 37°47' E 016°06'811.9
2016-May-18 23:33N 37°41' E 016°02'1211.7
2016-May-18 22:33N 37°30' E 015°55'1311.8
2016-May-18 21:26N 37°20' E 015°45'6510.3
2016-May-18 15:05N 36°38' E 014°42'712.3
2016-May-18 14:33N 36°40' E 014°35'1212.4
2016-May-18 13:33N 36°45' E 014°21'1312.7
2016-May-18 12:33N 36°51' E 014°07'1212.4
2016-May-18 11:33N 36°57' E 013°53'1211.8
2016-May-18 10:33N 37°01' E 013°39'1311.6
2016-May-18 09:25N 37°08' E 013°25'1011.9
2016-May-18 08:33N 37°12' E 013°13'3611.8
2016-May-18 05:29N 37°30' E 012°33'1212.6
2016-May-18 04:33N 37°36' E 012°20'1312.7
2016-May-18 03:33N 37°44' E 012°08'4212.2
2016-May-18 00:08N 38°06' E 011°23'4412.3
2016-May-17 20:32N 38°27' E 010°33'1212.2
2016-May-17 19:32N 38°33' E 010°20'2512.6
2016-May-17 17:33N 38°44' E 009°51'1512.7
2016-May-17 16:20N 38°51' E 009°34'1012.7
2016-May-17 15:32N 38°56' E 009°22'1212.0
2016-May-17 14:33N 39°02' E 009°09'5 5.0
2016-May-17 13:29N 39°05' E 009°03'0 0.0
2016-May-17 12:32N 39°05' E 009°03'0 0.1
2016-May-17 11:33N 39°05' E 009°03'1 1.0
2016-May-17 10:33N 39°05' E 009°02'0 0.0
2016-May-17 09:32N 39°05' E 009°02'0 0.0
2016-May-17 08:32N 39°05' E 009°02'0 0.0
2016-May-17 07:32N 39°05' E 009°02'0 0.0
2016-May-17 06:31N 39°05' E 009°02'0 0.0
2016-May-17 05:28N 39°05' E 009°02'0 0.0
2016-May-17 04:33N 39°05' E 009°02'0 0.0
2016-May-17 03:33N 39°05' E 009°02'0 0.0
2016-May-17 02:26N 39°05' E 009°02'0 0.0
2016-May-17 01:32N 39°05' E 009°02'0 0.0
2016-May-17 00:32N 39°05' E 009°02'0 0.0
2016-May-16 23:31N 39°05' E 009°02'0 0.0
2016-May-16 22:31N 39°05' E 009°02'0 0.0
2016-May-16 21:33N 39°05' E 009°02'0 0.0
2016-May-16 20:33N 39°05' E 009°02'0 0.0
2016-May-16 19:32N 39°05' E 009°02'0 0.0
2016-May-16 18:32N 39°05' E 009°02'0 0.0
2016-May-16 17:32N 39°05' E 009°02'0 0.0
2016-May-16 16:31N 39°05' E 009°02'0 0.0
2016-May-16 15:31N 39°05' E 009°02'0 0.0
2016-May-16 14:33N 39°05' E 009°02'0 0.0
2016-May-16 13:33N 39°05' E 009°02'0 0.0
2016-May-16 12:32N 39°05' E 009°02'0 0.0
2016-May-16 11:32N 39°05' E 009°02'0 0.0
2016-May-16 10:31N 39°05' E 009°02'0 0.0
2016-May-16 09:31N 39°05' E 009°02'0 0.0
2016-May-16 08:31N 39°05' E 009°02'0 0.0
2016-May-16 07:33N 39°05' E 009°02'0 0.0
2016-May-16 06:33N 39°05' E 009°02'0 0.0
2016-May-16 05:32N 39°05' E 009°02'0 0.0
2016-May-16 04:32N 39°05' E 009°02'0 0.0
2016-May-16 03:31N 39°05' E 009°02'0 0.0
2016-May-16 02:31N 39°05' E 009°02'0 0.0
2016-May-16 01:31N 39°05' E 009°02'0 0.0
2016-May-16 00:33N 39°05' E 009°02'0 0.0
2016-May-15 23:33N 39°05' E 009°02'2 2.4
2016-May-15 22:32N 39°03' E 009°04'0 0.1
2016-May-15 21:32N 39°03' E 009°04'0 0.0
2016-May-15 20:31N 39°03' E 009°04'0 0.0
2016-May-15 19:31N 39°03' E 009°04'0 0.0
2016-May-15 18:31N 39°03' E 009°04'0 0.0
2016-May-15 17:33N 39°03' E 009°04'0 0.0
2016-May-15 16:33N 39°03' E 009°04'0 0.0
2016-May-15 15:32N 39°03' E 009°04'0 0.0
2016-May-15 14:32N 39°03' E 009°04'0 0.0
2016-May-15 13:31N 39°03' E 009°04'0 0.0
2016-May-15 12:31N 39°03' E 009°04'0 0.0
2016-May-15 11:31N 39°03' E 009°04'0 0.0
2016-May-15 10:33N 39°03' E 009°04'0 0.0
2016-May-15 09:33N 39°03' E 009°04'0 0.0
2016-May-15 08:32N 39°03' E 009°04'0 0.0
2016-May-15 07:32N 39°03' E 009°04'0 0.1
2016-May-15 06:31N 39°03' E 009°04'0 0.0
2016-May-15 05:31N 39°03' E 009°04'0 0.0
2016-May-15 04:34N 39°03' E 009°04'0 0.0
2016-May-15 03:33N 39°03' E 009°04'0 0.1
2016-May-15 02:33N 39°03' E 009°04'0 0.0
2016-May-15 01:32N 39°03' E 009°04'0 0.0
2016-May-15 00:32N 39°03' E 009°04'0 0.0
2016-May-14 23:31N 39°03' E 009°04'0 0.0
2016-May-14 22:31N 39°03' E 009°04'0 0.0
2016-May-14 21:33N 39°03' E 009°04'0 0.0
2016-May-14 20:33N 39°03' E 009°04'0 0.0
2016-May-14 19:33N 39°03' E 009°04'0 0.1
2016-May-14 18:32N 39°03' E 009°04'0 0.0
2016-May-14 17:32N 39°03' E 009°04'0 0.1
2016-May-14 16:31N 39°03' E 009°04'0 0.0
2016-May-14 15:31N 39°03' E 009°04'0 0.0
2016-May-14 14:33N 39°03' E 009°04'0 0.0
2016-May-14 13:33N 39°03' E 009°04'0 0.0
2016-May-14 12:33N 39°03' E 009°04'0 0.0
2016-May-14 11:32N 39°03' E 009°04'0 0.0
2016-May-14 10:32N 39°03' E 009°04'0 0.0
2016-May-14 09:31N 39°03' E 009°04'0 0.0
2016-May-14 08:31N 39°03' E 009°04'0 0.1
2016-May-14 07:33N 39°03' E 009°04'0 0.0
2016-May-14 06:33N 39°03' E 009°04'0 0.0
2016-May-14 05:33N 39°03' E 009°04'0 0.0
2016-May-14 04:32N 39°03' E 009°04'0 0.0
2016-May-14 03:32N 39°03' E 009°04'0 0.0
2016-May-14 02:31N 39°03' E 009°04'0 0.1
2016-May-14 01:31N 39°03' E 009°04'0 0.0
2016-May-14 00:33N 39°03' E 009°04'0 0.0
2016-May-13 23:33N 39°03' E 009°04'0 0.0
2016-May-13 22:33N 39°03' E 009°04'0 0.0
2016-May-13 21:32N 39°03' E 009°04'0 0.0
2016-May-13 20:32N 39°03' E 009°04'0 0.0
2016-May-13 19:31N 39°03' E 009°04'0 0.0
2016-May-13 18:31N 39°03' E 009°04'0 0.0
2016-May-13 17:33N 39°03' E 009°04'0 0.0
2016-May-13 16:33N 39°03' E 009°04'0 0.0
2016-May-13 15:32N 39°03' E 009°04'0 0.0
2016-May-13 14:29N 39°03' E 009°04'  
Track history (hours):
 
Tides and Currents Weather Stations Pressure Air Temp Water Temp Dewpoint Dewpoint Depression Visibility Wind Speed Wind Dir Waves Ship Positions

Valle Di Andalusia

Last reported at 2016-May-23 14:10 UTC. Time now 2016-May-24 23:30 UTC.
Position N 44°58' E 012°50'.

Length 176 m; draft 7.5 m.

Type: Tanker. MMSI: 247046200.

Date/timePositionNaut miles runAvg speedWind from/ knotsBaromVisibWave heightAir tempDewpointWater temp
2016-May-23 14:10N 44°58' E 012°50'914.0
2016-May-23 13:33N 45°04' E 012°42'1413.7
2016-May-23 12:33N 45°14' E 012°30'1211.9
2016-May-23 11:33N 45°21' E 012°16'6 5.6
2016-May-23 10:33N 45°26' E 012°14'  
2016-May-19 00:12N 37°47' E 016°06'811.9
2016-May-18 23:33N 37°41' E 016°02'1211.7
2016-May-18 22:33N 37°30' E 015°55'1311.8
2016-May-18 21:26N 37°20' E 015°45'6510.3
2016-May-18 15:05N 36°38' E 014°42'712.3
2016-May-18 14:33N 36°40' E 014°35'1212.4
2016-May-18 13:33N 36°45' E 014°21'1312.7
2016-May-18 12:33N 36°51' E 014°07'1212.4
2016-May-18 11:33N 36°57' E 013°53'1211.8
2016-May-18 10:33N 37°01' E 013°39'1311.6
2016-May-18 09:25N 37°08' E 013°25'1011.9
2016-May-18 08:33N 37°12' E 013°13'3611.8
2016-May-18 05:29N 37°30' E 012°33'1212.6
2016-May-18 04:33N 37°36' E 012°20'1312.7
2016-May-18 03:33N 37°44' E 012°08'4212.2
2016-May-18 00:08N 38°06' E 011°23'4412.3
2016-May-17 20:32N 38°27' E 010°33'1212.2
2016-May-17 19:32N 38°33' E 010°20'2512.6
2016-May-17 17:33N 38°44' E 009°51'1512.7
2016-May-17 16:20N 38°51' E 009°34'1012.7
2016-May-17 15:32N 38°56' E 009°22'1212.0
2016-May-17 14:33N 39°02' E 009°09'5 5.0
2016-May-17 13:29N 39°05' E 009°03'0 0.0
2016-May-17 12:32N 39°05' E 009°03'0 0.1
2016-May-17 11:33N 39°05' E 009°03'1 1.0
2016-May-17 10:33N 39°05' E 009°02'0 0.0
2016-May-17 09:32N 39°05' E 009°02'0 0.0
2016-May-17 08:32N 39°05' E 009°02'0 0.0
2016-May-17 07:32N 39°05' E 009°02'0 0.0
2016-May-17 06:31N 39°05' E 009°02'0 0.0
2016-May-17 05:28N 39°05' E 009°02'0 0.0
2016-May-17 04:33N 39°05' E 009°02'0 0.0
2016-May-17 03:33N 39°05' E 009°02'0 0.0
2016-May-17 02:26N 39°05' E 009°02'0 0.0
2016-May-17 01:32N 39°05' E 009°02'0 0.0
2016-May-17 00:32N 39°05' E 009°02'0 0.0
2016-May-16 23:31N 39°05' E 009°02'0 0.0
2016-May-16 22:31N 39°05' E 009°02'0 0.0
2016-May-16 21:33N 39°05' E 009°02'0 0.0
2016-May-16 20:33N 39°05' E 009°02'0 0.0
2016-May-16 19:32N 39°05' E 009°02'0 0.0
2016-May-16 18:32N 39°05' E 009°02'0 0.0
2016-May-16 17:32N 39°05' E 009°02'0 0.0
2016-May-16 16:31N 39°05' E 009°02'0 0.0
2016-May-16 15:31N 39°05' E 009°02'0 0.0
2016-May-16 14:33N 39°05' E 009°02'0 0.0
2016-May-16 13:33N 39°05' E 009°02'0 0.0
2016-May-16 12:32N 39°05' E 009°02'0 0.0
2016-May-16 11:32N 39°05' E 009°02'0 0.0
2016-May-16 10:31N 39°05' E 009°02'0 0.0
2016-May-16 09:31N 39°05' E 009°02'0 0.0
2016-May-16 08:31N 39°05' E 009°02'0 0.0
2016-May-16 07:33N 39°05' E 009°02'0 0.0
2016-May-16 06:33N 39°05' E 009°02'0 0.0
2016-May-16 05:32N 39°05' E 009°02'0 0.0
2016-May-16 04:32N 39°05' E 009°02'0 0.0
2016-May-16 03:31N 39°05' E 009°02'0 0.0
2016-May-16 02:31N 39°05' E 009°02'0 0.0
2016-May-16 01:31N 39°05' E 009°02'0 0.0
2016-May-16 00:33N 39°05' E 009°02'0 0.0
2016-May-15 23:33N 39°05' E 009°02'2 2.4
2016-May-15 22:32N 39°03' E 009°04'0 0.1
2016-May-15 21:32N 39°03' E 009°04'0 0.0
2016-May-15 20:31N 39°03' E 009°04'0 0.0
2016-May-15 19:31N 39°03' E 009°04'0 0.0
2016-May-15 18:31N 39°03' E 009°04'0 0.0
2016-May-15 17:33N 39°03' E 009°04'0 0.0
2016-May-15 16:33N 39°03' E 009°04'0 0.0
2016-May-15 15:32N 39°03' E 009°04'0 0.0
2016-May-15 14:32N 39°03' E 009°04'0 0.0
2016-May-15 13:31N 39°03' E 009°04'0 0.0
2016-May-15 12:31N 39°03' E 009°04'0 0.0
2016-May-15 11:31N 39°03' E 009°04'0 0.0
2016-May-15 10:33N 39°03' E 009°04'0 0.0
2016-May-15 09:33N 39°03' E 009°04'0 0.0
2016-May-15 08:32N 39°03' E 009°04'0 0.0
2016-May-15 07:32N 39°03' E 009°04'0 0.1
2016-May-15 06:31N 39°03' E 009°04'0 0.0
2016-May-15 05:31N 39°03' E 009°04'0 0.0
2016-May-15 04:34N 39°03' E 009°04'0 0.0
2016-May-15 03:33N 39°03' E 009°04'0 0.1
2016-May-15 02:33N 39°03' E 009°04'0 0.0
2016-May-15 01:32N 39°03' E 009°04'0 0.0
2016-May-15 00:32N 39°03' E 009°04'0 0.0
2016-May-14 23:31N 39°03' E 009°04'0 0.0
2016-May-14 22:31N 39°03' E 009°04'0 0.0
2016-May-14 21:33N 39°03' E 009°04'0 0.0
2016-May-14 20:33N 39°03' E 009°04'0 0.0
2016-May-14 19:33N 39°03' E 009°04'0 0.1
2016-May-14 18:32N 39°03' E 009°04'0 0.0
2016-May-14 17:32N 39°03' E 009°04'0 0.1
2016-May-14 16:31N 39°03' E 009°04'0 0.0
2016-May-14 15:31N 39°03' E 009°04'0 0.0
2016-May-14 14:33N 39°03' E 009°04'0 0.0
2016-May-14 13:33N 39°03' E 009°04'0 0.0
2016-May-14 12:33N 39°03' E 009°04'0 0.0
2016-May-14 11:32N 39°03' E 009°04'0 0.0
2016-May-14 10:32N 39°03' E 009°04'0 0.0
2016-May-14 09:31N 39°03' E 009°04'0 0.0
2016-May-14 08:31N 39°03' E 009°04'0 0.1
2016-May-14 07:33N 39°03' E 009°04'0 0.0
2016-May-14 06:33N 39°03' E 009°04'0 0.0
2016-May-14 05:33N 39°03' E 009°04'0 0.0
2016-May-14 04:32N 39°03' E 009°04'0 0.0
2016-May-14 03:32N 39°03' E 009°04'0 0.0
2016-May-14 02:31N 39°03' E 009°04'0 0.1
2016-May-14 01:31N 39°03' E 009°04'0 0.0
2016-May-14 00:33N 39°03' E 009°04'0 0.0
2016-May-13 23:33N 39°03' E 009°04'0 0.0
2016-May-13 22:33N 39°03' E 009°04'0 0.0
2016-May-13 21:32N 39°03' E 009°04'0 0.0
2016-May-13 20:32N 39°03' E 009°04'0 0.0
2016-May-13 19:31N 39°03' E 009°04'0 0.0
2016-May-13 18:31N 39°03' E 009°04'0 0.0
2016-May-13 17:33N 39°03' E 009°04'0 0.0
2016-May-13 16:33N 39°03' E 009°04'0 0.0
2016-May-13 15:32N 39°03' E 009°04'0 0.0
2016-May-13 14:29N 39°03' E 009°04'  

Dump ship's entire track history